createdAt,value
2022-09-03T00:02:43.763Z,58.77
2022-09-03T00:07:55.679Z,58.97
2022-09-03T00:13:03.705Z,58.88
2022-09-03T00:18:09.683Z,58.82
2022-09-03T00:23:20.580Z,59.40
2022-09-03T00:28:29.822Z,59.52
2022-09-03T00:33:34.590Z,59.56
2022-09-03T00:38:40.960Z,59.01
2022-09-03T00:43:58.605Z,59.10
2022-09-03T00:49:34.970Z,58.99
2022-09-03T00:54:48.735Z,59.98
2022-09-03T00:59:58.976Z,60.27
2022-09-03T01:05:09.296Z,60.20
2022-09-03T01:10:26.838Z,60.46
2022-09-03T01:15:35.662Z,60.16
2022-09-03T01:20:49.173Z,60.42
2022-09-03T01:25:59.107Z,61.14
2022-09-03T01:31:12.910Z,60.66
2022-09-03T01:36:23.176Z,61.58
2022-09-03T01:41:54.699Z,61.60
2022-09-03T01:47:06.659Z,61.37
2022-09-03T01:52:15.335Z,61.10
2022-09-03T01:57:37.298Z,61.58
2022-09-03T02:02:43.980Z,61.89
2022-09-03T02:07:49.084Z,61.84
2022-09-03T02:12:55.755Z,61.80
2022-09-03T02:18:04.439Z,62.58
2022-09-03T02:23:07.295Z,61.89
2022-09-03T02:28:17.125Z,61.55
2022-09-03T02:33:22.079Z,62.63
2022-09-03T02:38:27.397Z,62.62
2022-09-03T02:43:35.459Z,62.00
2022-09-03T02:48:39.669Z,62.82
2022-09-03T02:53:42.821Z,63.13
2022-09-03T02:58:45.567Z,63.18
2022-09-03T03:03:50.160Z,63.58
2022-09-03T03:08:55.932Z,63.61
2022-09-03T03:13:58.944Z,62.68
2022-09-03T03:19:03.138Z,63.65
2022-09-03T03:24:06.418Z,63.92
2022-09-03T03:29:11.112Z,64.11
2022-09-03T03:34:15.609Z,63.36
2022-09-03T03:39:18.436Z,63.60
2022-09-03T03:44:21.219Z,63.88
2022-09-03T03:49:25.287Z,64.20
2022-09-03T03:54:27.994Z,64.53
2022-09-03T03:59:30.751Z,64.50
2022-09-03T04:04:34.854Z,64.41
2022-09-03T04:09:37.713Z,65.98
2022-09-03T04:14:40.409Z,65.78
2022-09-03T04:19:48.085Z,65.61
2022-09-03T04:24:50.844Z,64.99
2022-09-03T04:29:53.877Z,66.04
2022-09-03T04:34:58.350Z,66.46
2022-09-03T04:40:01.083Z,65.80
2022-09-03T04:45:04.238Z,65.83
2022-09-03T04:50:09.433Z,66.18
2022-09-03T04:55:12.118Z,65.52
2022-09-03T05:00:18.095Z,66.25
2022-09-03T05:05:23.329Z,67.21
2022-09-03T05:10:26.094Z,66.82
2022-09-03T05:15:29.189Z,67.29
2022-09-03T05:20:33.637Z,66.90
2022-09-03T05:25:38.083Z,66.85
2022-09-03T05:30:40.824Z,67.42
2022-09-03T05:35:44.864Z,67.89
2022-09-03T05:40:47.898Z,67.30
2022-09-03T05:45:50.798Z,68.11
2022-09-03T05:51:01.973Z,67.13
2022-09-03T05:56:07.386Z,66.48
2022-09-03T06:01:14.270Z,65.93
2022-09-03T06:06:18.351Z,65.22
2022-09-03T06:11:21.566Z,65.50
2022-09-03T06:16:30.688Z,65.57
2022-09-03T06:21:37.027Z,65.54
2022-09-03T06:26:40.025Z,65.46
2022-09-03T06:31:45.677Z,70.26
2022-09-03T06:36:50.601Z,68.53
2022-09-03T06:41:53.469Z,67.77
2022-09-03T06:47:03.171Z,68.27
2022-09-03T06:52:07.327Z,67.27
2022-09-03T06:57:10.063Z,67.90
2022-09-03T07:02:12.969Z,68.15
2022-09-03T07:07:17.134Z,69.04
2022-09-03T07:12:19.911Z,70.92
2022-09-03T07:17:23.049Z,71.30
2022-09-03T07:22:31.483Z,71.45
2022-09-03T07:27:35.826Z,71.69
2022-09-03T07:32:40.888Z,70.12
2022-09-03T07:37:45.111Z,69.82
2022-09-03T07:42:50.977Z,68.81
2022-09-03T07:47:56.139Z,69.24
2022-09-03T07:53:00.415Z,69.34
2022-09-03T07:58:03.868Z,74.02
2022-09-03T08:03:08.560Z,77.09
2022-09-03T08:08:15.504Z,75.57
2022-09-03T08:13:19.290Z,75.93
2022-09-03T08:18:22.812Z,74.20
2022-09-03T08:23:27.276Z,72.74
2022-09-03T08:28:34.246Z,71.46
2022-09-03T08:33:42.409Z,71.38
2022-09-03T08:38:48.631Z,69.54
2022-09-03T08:44:23.036Z,69.31
2022-09-03T08:49:30.742Z,69.95
2022-09-03T08:54:34.963Z,71.06
2022-09-03T08:59:38.159Z,71.51
2022-09-03T09:04:57.730Z,75.56
2022-09-03T09:10:10.595Z,78.40
2022-09-03T09:15:18.605Z,78.10
2022-09-03T09:20:30.206Z,78.88
2022-09-03T09:25:39.626Z,77.12
2022-09-03T09:30:43.692Z,75.79
2022-09-03T09:35:47.561Z,74.35
2022-09-03T09:40:51.781Z,73.87
2022-09-03T09:45:55.584Z,74.12
2022-09-03T09:51:10.093Z,71.88
2022-09-03T09:56:24.985Z,71.76
2022-09-03T10:01:30.394Z,71.08
2022-09-03T10:06:51.200Z,69.74
2022-09-03T10:12:05.802Z,67.70
2022-09-03T10:17:15.889Z,66.61
2022-09-03T10:22:26.217Z,66.37
2022-09-03T10:27:33.096Z,65.99
2022-09-03T10:32:48.534Z,66.34
2022-09-03T10:38:01.807Z,65.76
2022-09-03T10:43:31.520Z,66.90
2022-09-03T10:48:57.473Z,68.13
2022-09-03T10:54:20.652Z,69.56
2022-09-03T10:59:37.042Z,70.73
2022-09-03T11:04:49.394Z,70.32
2022-09-03T11:09:58.894Z,74.84
2022-09-03T11:15:09.042Z,76.21
2022-09-03T11:20:19.591Z,78.03
2022-09-03T11:25:26.084Z,74.44
2022-09-03T11:30:41.535Z,73.92
2022-09-03T11:35:44.573Z,75.46
2022-09-03T11:41:00.833Z,74.09
2022-09-03T11:46:11.995Z,70.78
2022-09-03T11:51:31.982Z,67.59
2022-09-03T11:56:36.497Z,66.86
2022-09-03T12:01:44.797Z,66.09
2022-09-03T12:07:23.120Z,62.70
2022-09-03T12:12:40.627Z,60.24
2022-09-03T12:18:13.274Z,61.79
2022-09-03T12:23:28.154Z,63.10
2022-09-03T12:28:33.865Z,65.28
2022-09-03T12:33:44.108Z,64.04
2022-09-03T12:39:10.336Z,57.80
2022-09-03T12:44:11.620Z,56.06
2022-09-03T12:49:31.400Z,60.11
2022-09-03T12:54:35.727Z,59.61
2022-09-03T12:59:40.421Z,61.31
2022-09-03T13:04:46.283Z,61.97
2022-09-03T13:09:49.691Z,61.75
2022-09-03T13:14:52.937Z,63.22
2022-09-03T13:20:21.351Z,63.18
2022-09-03T13:25:31.303Z,63.63
2022-09-03T13:30:42.409Z,56.57
2022-09-03T13:35:52.939Z,57.38
2022-09-03T13:40:59.600Z,58.73
2022-09-03T13:46:07.230Z,60.09
2022-09-03T13:51:18.971Z,57.78
2022-09-03T13:56:31.056Z,60.61
2022-09-03T14:01:51.917Z,61.21
2022-09-03T14:07:02.929Z,61.85
2022-09-03T14:12:14.917Z,63.28
2022-09-03T14:17:27.871Z,64.50
2022-09-03T14:22:45.277Z,62.30
2022-09-03T14:27:48.885Z,64.47
2022-09-03T14:32:59.330Z,64.04
2022-09-03T14:38:41.793Z,63.99
2022-09-03T14:44:04.409Z,62.35
2022-09-03T14:49:26.229Z,62.85
2022-09-03T14:54:42.711Z,62.02
2022-09-03T15:00:06.263Z,60.47
2022-09-03T15:05:13.089Z,62.55
2022-09-03T15:10:21.800Z,63.44
2022-09-03T15:15:30.390Z,63.72
2022-09-03T15:20:44.718Z,63.71
2022-09-03T15:26:27.133Z,63.94
2022-09-03T15:31:44.058Z,64.16
2022-09-03T15:36:51.649Z,65.82
2022-09-03T15:41:59.383Z,67.14
2022-09-03T15:47:14.013Z,67.75
2022-09-03T15:52:30.392Z,68.63
2022-09-03T15:57:42.863Z,69.11
2022-09-03T16:02:52.294Z,69.92
2022-09-03T16:08:08.019Z,70.37
2022-09-03T16:13:30.779Z,70.74
2022-09-03T16:18:38.886Z,70.52
2022-09-03T16:23:50.190Z,71.01
2022-09-03T16:28:58.681Z,71.02
2022-09-03T16:34:08.866Z,71.75
2022-09-03T16:39:23.097Z,72.10
2022-09-03T16:44:38.887Z,72.69
2022-09-03T16:49:53.773Z,73.28
2022-09-03T16:55:11.182Z,73.14
2022-09-03T17:00:17.194Z,74.04
2022-09-03T17:05:38.285Z,74.26
2022-09-03T17:10:49.990Z,74.86
2022-09-03T17:15:58.468Z,83.09
2022-09-03T17:21:14.645Z,93.13
2022-09-03T17:26:29.251Z,100.00
2022-09-03T17:31:51.355Z,100.00
2022-09-03T17:37:05.484Z,100.00
2022-09-03T17:42:20.426Z,100.00
2022-09-03T17:47:43.239Z,100.00
2022-09-03T17:52:49.767Z,100.00
2022-09-03T17:57:58.968Z,100.00
2022-09-03T18:03:09.730Z,100.00
2022-09-03T18:08:19.257Z,100.00
2022-09-03T18:13:32.559Z,100.00
2022-09-03T18:18:46.277Z,100.00
2022-09-03T18:24:12.851Z,100.00
2022-09-03T18:29:38.657Z,100.00
2022-09-03T18:35:01.562Z,100.00
2022-09-03T18:40:22.539Z,100.00
2022-09-03T18:51:44.284Z,100.00
2022-09-03T18:57:06.888Z,100.00
2022-09-03T19:02:41.863Z,100.00
2022-09-03T19:08:10.508Z,100.00
2022-09-03T19:13:43.914Z,100.00
2022-09-03T19:19:21.713Z,100.00
2022-09-03T19:24:47.589Z,100.00
2022-09-03T19:30:19.989Z,100.00
2022-09-03T19:35:46.377Z,100.00
2022-09-03T19:41:21.111Z,100.00
2022-09-03T19:46:53.867Z,100.00
2022-09-03T19:52:22.606Z,100.00
2022-09-03T19:57:47.733Z,100.00
2022-09-03T20:03:08.485Z,100.00
2022-09-03T20:08:33.554Z,100.00
2022-09-03T20:13:54.131Z,100.00
2022-09-03T20:19:04.149Z,100.00
2022-09-03T20:24:26.804Z,100.00
2022-09-03T20:30:02.665Z,100.00
2022-09-03T20:35:10.962Z,100.00
2022-09-03T20:40:26.991Z,100.00
2022-09-03T20:45:44.347Z,100.00
2022-09-03T20:50:56.545Z,100.00
2022-09-03T20:56:04.482Z,100.00
2022-09-03T21:01:12.566Z,100.00
2022-09-03T21:06:27.773Z,100.00
2022-09-03T21:11:38.896Z,100.00
2022-09-03T21:16:57.400Z,100.00
2022-09-03T21:22:04.878Z,100.00
2022-09-03T21:27:13.882Z,100.00
2022-09-03T21:32:21.576Z,100.00
2022-09-03T21:37:25.429Z,100.00
2022-09-03T21:42:34.199Z,100.00
2022-09-03T21:47:44.284Z,100.00
2022-09-03T21:52:52.961Z,100.00
2022-09-03T21:58:10.445Z,100.00
2022-09-03T22:03:14.573Z,100.00
2022-09-03T22:08:24.446Z,100.00
2022-09-03T22:13:32.361Z,100.00
2022-09-03T22:18:36.828Z,100.00
2022-09-03T22:23:55.421Z,100.00
2022-09-03T22:29:05.720Z,100.00
2022-09-03T22:34:27.173Z,100.00
2022-09-03T22:39:36.569Z,100.00
2022-09-03T22:44:55.701Z,100.00
2022-09-03T22:50:08.854Z,100.00
2022-09-03T22:55:18.426Z,100.00
2022-09-03T23:00:21.837Z,100.00
2022-09-03T23:05:35.731Z,100.00
2022-09-03T23:10:55.035Z,100.00
2022-09-03T23:16:05.041Z,100.00
2022-09-03T23:21:25.101Z,100.00
2022-09-03T23:26:36.244Z,100.00
2022-09-03T23:31:39.311Z,100.00
2022-09-03T23:42:51.121Z,100.00
2022-09-03T23:48:00.211Z,100.00
2022-09-03T23:53:15.478Z,100.00
2022-09-03T23:58:29.815Z,100.00
